Time;durP1;ratioP1;P1;durP2;ratioP2;P2;SDS_P1;SDS_P2;PMS_P1;PMS_P2;Temp;Humidity;BMP_temperature;BMP_pressure;BME280_temperature;BME280_humidity;BME280_pressure;Samples;Min_cycle;Max_cycle;Signal;HPM_P1;HPM_P2
2023/07/02 00:00:59;;;;;;;5.72;3.55;;;22.10;99.90;;;;;;5073458;28;20024;-48
2023/07/02 00:03:25;;;;;;;6.13;3.42;;;22.10;99.90;;;;;;5072638;28;20426;-50
2023/07/02 00:05:54;;;;;;;4.95;3.28;;;22.10;99.90;;;;;;5053963;28;20047;-49
2023/07/02 00:08:21;;;;;;;5.30;3.38;;;22.10;99.90;;;;;;5072746;28;20033;-50
2023/07/02 00:10:47;;;;;;;5.35;3.25;;;22.10;99.90;;;;;;5072600;28;20025;-49
2023/07/02 00:13:12;;;;;;;5.20;3.53;;;22.10;99.90;;;;;;5072852;28;20028;-49
2023/07/02 00:15:38;;;;;;;6.38;3.83;;;22.10;99.90;;;;;;5053838;28;20069;-49
2023/07/02 00:18:04;;;;;;;7.57;3.83;;;22.10;99.90;;;;;;5072469;28;20048;-49
2023/07/02 00:20:34;;;;;;;5.97;3.90;;;22.00;99.90;;;;;;5049911;28;20041;-49
2023/07/02 00:23:00;;;;;;;6.78;3.60;;;22.10;99.90;;;;;;5050242;28;20049;-49
2023/07/02 00:25:26;;;;;;;5.88;3.60;;;22.10;99.90;;;;;;5049909;28;20063;-49
2023/07/02 00:27:52;;;;;;;5.82;3.47;;;22.10;99.90;;;;;;5000340;28;20056;-48
2023/07/02 00:30:18;;;;;;;7.65;3.90;;;22.00;99.90;;;;;;5050186;28;20520;-48
2023/07/02 00:32:43;;;;;;;5.55;3.47;;;22.10;99.90;;;;;;5016806;28;20059;-50
2023/07/02 00:35:09;;;;;;;6.80;3.10;;;21.90;99.90;;;;;;5016845;28;20037;-48
2023/07/02 00:37:35;;;;;;;5.65;3.47;;;22.00;99.90;;;;;;5049903;28;20101;-50
2023/07/02 00:40:02;;;;;;;8.32;3.72;;;22.00;99.90;;;;;;5049826;28;20048;-49
2023/07/02 00:42:29;;;;;;;6.43;3.88;;;21.90;99.90;;;;;;5049778;28;20033;-48
2023/07/02 00:44:56;;;;;;;4.70;2.92;;;21.90;99.90;;;;;;5000730;28;20045;-49
2023/07/02 00:47:23;;;;;;;5.80;3.50;;;21.90;99.90;;;;;;5049486;28;20033;-48
2023/07/02 00:49:49;;;;;;;5.20;3.13;;;21.90;99.90;;;;;;5049903;28;20033;-48
2023/07/02 00:52:15;;;;;;;8.80;3.53;;;21.80;99.90;;;;;;5062646;28;20452;-49
2023/07/02 00:54:40;;;;;;;5.15;3.58;;;21.80;99.90;;;;;;5069799;28;20102;-49
2023/07/02 00:57:07;;;;;;;7.55;3.38;;;21.80;99.90;;;;;;5072666;28;20047;-49
2023/07/02 00:59:35;;;;;;;8.15;3.33;;;21.70;99.90;;;;;;5071772;28;20043;-48
2023/07/02 01:02:01;;;;;;;6.40;3.97;;;21.70;99.90;;;;;;5072421;28;20430;-50
2023/07/02 01:04:29;;;;;;;6.45;3.90;;;21.70;99.90;;;;;;5072257;28;20376;-49
2023/07/02 01:06:57;;;;;;;7.97;3.72;;;21.70;99.90;;;;;;5072107;28;20024;-50
2023/07/02 01:09:26;;;;;;;5.80;3.30;;;21.70;99.90;;;;;;5071597;28;20060;-50
2023/07/02 01:12:00;;;;;;;6.75;4.20;;;21.70;99.90;;;;;;5071896;28;20033;-49
2023/07/02 01:14:37;;;;;;;7.95;4.20;;;21.80;99.90;;;;;;5071803;28;20029;-48
2023/07/02 01:17:05;;;;;;;5.82;3.65;;;21.80;99.90;;;;;;5072077;28;20032;-49
2023/07/02 01:19:52;;;;;;;8.13;4.38;;;21.80;99.90;;;;;;5072056;28;20111;-48
2023/07/02 01:22:20;;;;;;;6.05;3.88;;;21.90;99.90;;;;;;5071781;28;20032;-50
2023/07/02 01:24:49;;;;;;;5.57;3.42;;;21.80;99.90;;;;;;5071802;28;20456;-49
2023/07/02 01:27:15;;;;;;;5.95;3.85;;;21.80;99.90;;;;;;5069694;28;20033;-48
2023/07/02 01:29:44;;;;;;;7.43;3.88;;;21.70;99.90;;;;;;5071702;28;20815;-48
2023/07/02 01:32:10;;;;;;;7.85;4.63;;;21.60;99.90;;;;;;5071968;28;20067;-49
2023/07/02 01:34:36;;;;;;;6.45;3.78;;;21.60;99.90;;;;;;5072099;28;20048;-48
2023/07/02 01:37:03;;;;;;;7.88;3.33;;;21.60;99.90;;;;;;5072077;28;20027;-48
2023/07/02 01:39:29;;;;;;;7.35;3.53;;;21.70;99.90;;;;;;5071255;28;20037;-48
2023/07/02 01:42:07;;;;;;;6.22;3.75;;;21.70;99.90;;;;;;5071865;28;20029;-50
2023/07/02 01:44:33;;;;;;;6.95;3.58;;;21.70;99.90;;;;;;5071377;28;20563;-49
2023/07/02 01:46:59;;;;;;;7.53;3.72;;;21.70;99.90;;;;;;5071502;28;20099;-50
2023/07/02 01:49:25;;;;;;;6.53;3.60;;;21.70;99.90;;;;;;5069419;28;20060;-51
2023/07/02 01:51:51;;;;;;;6.00;3.70;;;21.50;99.90;;;;;;5071502;28;20380;-50
2023/07/02 01:54:19;;;;;;;5.20;3.13;;;21.60;99.90;;;;;;5071607;28;20050;-50
2023/07/02 01:56:45;;;;;;;6.70;3.33;;;21.50;99.90;;;;;;5071566;28;20566;-50
2023/07/02 01:59:11;;;;;;;5.65;3.25;;;21.60;99.90;;;;;;5071620;28;20081;-50
2023/07/02 02:01:40;;;;;;;5.97;3.60;;;21.50;99.90;;;;;;5052572;28;20471;-49
2023/07/02 02:04:09;;;;;;;5.35;3.33;;;21.40;99.90;;;;;;5071625;28;20400;-48
2023/07/02 02:06:35;;;;;;;5.65;3.35;;;21.30;99.90;;;;;;5072990;28;20024;-49
2023/07/02 02:09:05;;;;;;;5.25;3.50;;;21.20;99.90;;;;;;5075265;28;20072;-48
2023/07/02 02:11:32;;;;;;;6.00;3.13;;;;;;;;;;5074921;28;20128;-48
2023/07/02 02:14:01;;;;;;;4.65;3.42;;;;;;;;;;5089722;28;20041;-48
2023/07/02 02:16:27;;;;;;;6.22;3.33;;;;;;;;;;5074734;28;20550;-50
2023/07/02 02:18:53;;;;;;;4.57;3.13;;;20.90;99.90;;;;;;5089445;28;20128;-48
2023/07/02 02:21:20;;;;;;;4.93;3.40;;;20.80;99.90;;;;;;5073721;28;20391;-48
2023/07/02 02:23:46;;;;;;;6.72;3.47;;;20.90;99.90;;;;;;5074696;28;20020;-49
2023/07/02 02:26:12;;;;;;;9.55;4.00;;;20.90;99.90;;;;;;5075082;28;20021;-49
2023/07/02 02:28:38;;;;;;;7.68;3.20;;;20.90;99.90;;;;;;5055263;28;20121;-47
2023/07/02 02:31:04;;;;;;;7.93;3.75;;;21.00;99.90;;;;;;5072312;28;20111;-48
2023/07/02 02:33:30;;;;;;;8.70;3.38;;;;;;;;;;5074460;28;20032;-49
2023/07/02 02:35:56;;;;;;;5.03;3.20;;;20.90;99.90;;;;;;5072506;28;20076;-49
2023/07/02 02:38:22;;;;;;;5.38;2.85;;;21.00;99.90;;;;;;5074695;28;20063;-48
2023/07/02 02:40:47;;;;;;;5.88;3.28;;;21.10;99.90;;;;;;5074356;28;20103;-49
2023/07/02 02:43:13;;;;;;;4.80;2.92;;;21.00;99.90;;;;;;5072486;28;20032;-49
2023/07/02 02:45:39;;;;;;;5.82;3.30;;;21.10;99.90;;;;;;5074182;28;20078;-49
2023/07/02 02:48:05;;;;;;;6.55;3.30;;;21.00;99.90;;;;;;5074229;28;20038;-48
2023/07/02 02:50:31;;;;;;;4.78;2.65;;;21.10;99.90;;;;;;5074876;28;20021;-50
2023/07/02 02:52:56;;;;;;;6.93;3.17;;;21.00;99.90;;;;;;5055664;28;20071;-48
2023/07/02 02:55:22;;;;;;;6.38;3.17;;;21.10;99.90;;;;;;5071968;28;20537;-48
2023/07/02 02:57:48;;;;;;;5.60;3.25;;;21.10;99.90;;;;;;5074138;28;20392;-48
2023/07/02 03:00:14;;;;;;;6.28;3.65;;;20.90;99.90;;;;;;5074175;28;20032;-49
2023/07/02 03:02:39;;;;;;;4.22;3.22;;;20.80;99.90;;;;;;5055286;28;20093;-48
2023/07/02 03:05:06;;;;;;;3.60;2.45;;;20.80;99.90;;;;;;5074336;28;20028;-48
2023/07/02 03:07:32;;;;;;;5.07;3.15;;;20.70;99.90;;;;;;5021717;28;20040;-48
2023/07/02 03:09:58;;;;;;;4.90;2.95;;;20.70;99.90;;;;;;5073545;28;20060;-49
2023/07/02 03:12:26;;;;;;;4.78;2.92;;;20.80;99.90;;;;;;5074199;28;20024;-50
2023/07/02 03:14:52;;;;;;;9.35;3.92;;;20.80;99.90;;;;;;5073503;28;20407;-50
2023/07/02 03:17:19;;;;;;;8.38;3.85;;;20.90;99.90;;;;;;5073914;28;20043;-48
2023/07/02 03:19:45;;;;;;;5.45;3.08;;;20.90;99.90;;;;;;5070776;28;20044;-49
2023/07/02 03:22:10;;;;;;;6.38;3.03;;;20.90;99.90;;;;;;5054124;28;20491;-48
2023/07/02 03:24:37;;;;;;;6.57;2.90;;;20.90;99.90;;;;;;5072994;28;20494;-49
2023/07/02 03:27:02;;;;;;;5.55;2.70;;;20.80;99.90;;;;;;5052096;28;20201;-48
2023/07/02 03:29:28;;;;;;;6.90;3.67;;;20.70;99.90;;;;;;5073090;28;20590;-48
2023/07/02 03:31:54;;;;;;;8.13;3.38;;;20.70;99.90;;;;;;5073185;28;20024;-48
2023/07/02 03:34:20;;;;;;;3.65;2.47;;;20.70;99.90;;;;;;5073572;28;20031;-48
2023/07/02 03:36:46;;;;;;;5.43;3.20;;;20.70;99.90;;;;;;5073231;28;20021;-48
2023/07/02 03:39:11;;;;;;;6.35;3.38;;;20.70;99.90;;;;;;5054384;28;20048;-48
2023/07/02 03:41:37;;;;;;;5.97;3.40;;;20.70;99.90;;;;;;5073168;28;20028;-48
2023/07/02 03:44:04;;;;;;;6.38;3.45;;;20.70;99.90;;;;;;5037732;28;20442;-48
2023/07/02 03:46:31;;;;;;;6.13;3.45;;;20.70;99.90;;;;;;5071911;28;20017;-52
2023/07/02 03:48:57;;;;;;;7.60;3.20;;;20.70;99.90;;;;;;5072939;28;20040;-47
2023/07/02 03:51:23;;;;;;;6.85;3.33;;;;;;;;;;5037644;28;20111;-49
2023/07/02 03:53:49;;;;;;;5.63;3.00;;;20.50;99.90;;;;;;5072903;28;20028;-48
2023/07/02 03:56:15;;;;;;;7.03;4.03;;;20.40;99.90;;;;;;5073081;28;20032;-48
2023/07/02 03:58:41;;;;;;;4.88;3.10;;;20.40;99.90;;;;;;5072959;28;20112;-49
2023/07/02 04:01:07;;;;;;;6.75;3.47;;;20.40;99.90;;;;;;5073244;28;20119;-49
2023/07/02 04:03:32;;;;;;;5.28;3.17;;;20.30;99.90;;;;;;5072927;28;20462;-48
2023/07/02 04:05:58;;;;;;;7.07;4.35;;;20.30;99.90;;;;;;5054031;28;20029;-49
2023/07/02 04:08:24;;;;;;;7.20;3.63;;;20.30;99.90;;;;;;5053688;28;20063;-49
2023/07/02 04:10:50;;;;;;;6.25;3.08;;;20.30;99.90;;;;;;5072664;28;20364;-49
2023/07/02 04:13:16;;;;;;;6.50;2.85;;;20.30;99.90;;;;;;5072875;28;20035;-49
2023/07/02 04:15:42;;;;;;;5.20;3.20;;;20.30;99.90;;;;;;5053801;28;20028;-49
2023/07/02 04:18:08;;;;;;;5.25;3.25;;;20.30;99.90;;;;;;5033479;28;20063;-47
2023/07/02 04:20:34;;;;;;;5.95;2.80;;;20.40;99.90;;;;;;5050166;28;20511;-48
2023/07/02 04:22:59;;;;;;;5.18;3.22;;;20.50;99.90;;;;;;5050088;28;20128;-48
2023/07/02 04:25:25;;;;;;;6.18;3.30;;;20.50;99.90;;;;;;5049924;28;20061;-48
2023/07/02 04:27:56;;;;;;;6.57;3.00;;;20.50;99.90;;;;;;5050042;28;20033;-48
2023/07/02 04:30:22;;;;;;;5.43;3.05;;;20.60;99.90;;;;;;5049642;28;20040;-49
2023/07/02 04:32:47;;;;;;;4.40;2.80;;;20.70;99.90;;;;;;5049894;28;20667;-49
2023/07/02 04:35:13;;;;;;;8.05;3.55;;;20.70;99.90;;;;;;5049403;28;20037;-48
2023/07/02 04:37:39;;;;;;;6.13;2.90;;;20.70;99.90;;;;;;5049873;28;20040;-49
2023/07/02 04:40:09;;;;;;;8.80;3.38;;;;;;;;;;5016450;28;20055;-49
2023/07/02 04:42:37;;;;;;;6.72;3.83;;;21.10;99.90;;;;;;5049782;28;20045;-49
2023/07/02 04:45:04;;;;;;;5.88;3.15;;;21.10;99.90;;;;;;5049967;28;20087;-49
2023/07/02 04:47:30;;;;;;;4.57;2.88;;;21.20;99.90;;;;;;5049620;28;20083;-48
2023/07/02 04:49:57;;;;;;;4.10;2.80;;;21.20;99.90;;;;;;5068441;28;20036;-49
2023/07/02 04:52:22;;;;;;;3.75;2.22;;;21.30;99.90;;;;;;5072055;28;20039;-48
2023/07/02 04:54:48;;;;;;;5.03;3.22;;;21.30;99.90;;;;;;5072152;28;20032;-48
2023/07/02 04:57:14;;;;;;;4.20;2.45;;;21.20;99.90;;;;;;5036227;28;20124;-48
2023/07/02 04:59:42;;;;;;;5.15;2.83;;;21.30;99.90;;;;;;5035256;28;20108;-48
2023/07/02 05:02:07;;;;;;;4.53;2.72;;;21.30;99.90;;;;;;5049920;28;20094;-49
2023/07/02 05:04:33;;;;;;;7.65;2.92;;;21.50;99.90;;;;;;5065859;28;20475;-49
2023/07/02 05:07:03;;;;;;;4.88;3.05;;;21.60;99.90;;;;;;5070793;28;20064;-49
2023/07/02 05:09:28;;;;;;;4.50;2.53;;;21.70;99.90;;;;;;5071436;28;20044;-49
2023/07/02 05:11:54;;;;;;;4.65;2.80;;;21.90;99.90;;;;;;5070452;28;20035;-48
2023/07/02 05:14:20;;;;;;;4.93;2.55;;;21.80;99.90;;;;;;5071547;28;20047;-49
2023/07/02 05:16:45;;;;;;;4.88;2.55;;;21.80;99.90;;;;;;5071601;28;20033;-49
2023/07/02 05:19:11;;;;;;;4.75;3.00;;;21.80;99.90;;;;;;5071651;28;20046;-48
2023/07/02 05:21:37;;;;;;;7.03;2.85;;;22.00;99.90;;;;;;5071880;28;20032;-49
2023/07/02 05:24:03;;;;;;;9.75;3.67;;;21.90;99.90;;;;;;5071340;28;20441;-48
2023/07/02 05:26:29;;;;;;;4.63;2.55;;;22.00;99.90;;;;;;5052922;28;20044;-48
2023/07/02 05:28:54;;;;;;;5.68;2.58;;;21.90;99.90;;;;;;5071666;28;20507;-50
2023/07/02 05:31:20;;;;;;;4.78;2.42;;;21.90;99.90;;;;;;5071809;28;20060;-48
2023/07/02 05:33:46;;;;;;;5.07;2.90;;;22.20;99.90;;;;;;5072291;28;20039;-48
2023/07/02 05:36:12;;;;;;;6.22;2.30;;;22.30;99.90;;;;;;5071635;28;20110;-48
2023/07/02 05:38:37;;;;;;;7.15;3.13;;;22.10;99.90;;;;;;5035346;28;20435;-49
2023/07/02 05:41:03;;;;;;;7.90;2.83;;;22.20;99.90;;;;;;5071698;28;20073;-50
2023/07/02 05:43:29;;;;;;;7.10;2.85;;;22.40;99.90;;;;;;5065559;28;20368;-49
2023/07/02 05:45:57;;;;;;;5.10;2.88;;;22.30;99.90;;;;;;5074945;28;20348;-49
2023/07/02 05:48:23;;;;;;;4.13;2.65;;;22.50;99.90;;;;;;5074957;28;20073;-48
2023/07/02 05:50:49;;;;;;;4.35;2.70;;;22.40;99.90;;;;;;5038088;28;20033;-47
2023/07/02 05:53:14;;;;;;;5.05;2.63;;;22.30;99.90;;;;;;5072983;28;20043;-49
2023/07/02 05:55:42;;;;;;;5.47;2.90;;;22.30;99.90;;;;;;5075287;28;20033;-49
2023/07/02 05:58:07;;;;;;;4.28;2.70;;;22.40;99.90;;;;;;5053668;28;20041;-48
2023/07/02 06:00:33;;;;;;;4.32;2.60;;;22.50;99.90;;;;;;5030473;28;20094;-49
2023/07/02 06:02:59;;;;;;;4.78;2.75;;;22.60;99.90;;;;;;5072186;28;20102;-49
2023/07/02 06:05:24;;;;;;;4.72;2.33;;;22.60;99.90;;;;;;5056149;28;20040;-49
2023/07/02 06:07:50;;;;;;;4.35;2.13;;;22.50;99.90;;;;;;5074308;28;20051;-50
2023/07/02 06:10:16;;;;;;;4.38;2.63;;;22.60;99.90;;;;;;5074916;28;20074;-49
2023/07/02 06:12:43;;;;;;;5.65;2.88;;;22.80;99.90;;;;;;5056371;28;20086;-49
2023/07/02 06:15:09;;;;;;;6.22;2.60;;;22.80;99.90;;;;;;5074903;28;20067;-50
2023/07/02 06:17:35;;;;;;;4.10;2.30;;;22.80;99.90;;;;;;5072568;28;20044;-49
2023/07/02 06:20:05;;;;;;;4.95;2.70;;;22.80;99.90;;;;;;5074788;28;20035;-48
2023/07/02 06:22:31;;;;;;;4.00;2.65;;;22.80;99.90;;;;;;5075361;28;20033;-50
2023/07/02 06:24:56;;;;;;;3.75;2.38;;;22.80;99.90;;;;;;5075147;28;20035;-49
2023/07/02 06:27:23;;;;;;;4.18;2.40;;;22.90;99.90;;;;;;5074815;28;20028;-49
2023/07/02 06:29:50;;;;;;;4.95;2.67;;;23.00;99.90;;;;;;5074682;28;20020;-48
2023/07/02 06:32:16;;;;;;;4.13;2.70;;;22.90;99.90;;;;;;5056287;28;20089;-48
2023/07/02 06:34:41;;;;;;;7.15;2.80;;;23.10;99.90;;;;;;5074882;28;20111;-50
2023/07/02 06:37:07;;;;;;;4.65;2.60;;;23.10;99.90;;;;;;5074588;28;20035;-49
2023/07/02 06:39:33;;;;;;;4.05;2.80;;;23.40;99.90;;;;;;5074447;28;20476;-49
2023/07/02 06:41:58;;;;;;;8.35;2.63;;;23.30;99.90;;;;;;5074826;28;20035;-49
2023/07/02 06:44:24;;;;;;;4.97;2.63;;;23.40;99.90;;;;;;5074327;28;20029;-48
2023/07/02 06:46:50;;;;;;;4.57;2.58;;;23.40;99.90;;;;;;5072377;28;20043;-48
2023/07/02 06:49:16;;;;;;;4.35;3.00;;;23.30;99.90;;;;;;5074310;28;20375;-50
2023/07/02 06:51:41;;;;;;;5.95;3.10;;;23.50;99.90;;;;;;5073984;28;20103;-48
2023/07/02 06:54:07;;;;;;;4.95;2.83;;;23.60;99.90;;;;;;5074526;28;20115;-50
2023/07/02 06:56:34;;;;;;;5.45;3.13;;;23.60;99.90;;;;;;5055272;28;20036;-48
2023/07/02 06:59:03;;;;;;;6.15;2.97;;;23.90;99.90;;;;;;5055380;28;20162;-49
2023/07/02 07:01:29;;;;;;;5.13;2.70;;;;;;;;;;5055248;28;20068;-49
2023/07/02 07:03:55;;;;;;;6.07;3.03;;;;;;;;;;5074084;28;20056;-50
2023/07/02 07:06:21;;;;;;;5.00;3.17;;;24.30;99.90;;;;;;5073934;28;20033;-49
2023/07/02 07:08:46;;;;;;;4.53;3.10;;;24.60;99.90;;;;;;5071698;28;20087;-50
2023/07/02 07:11:12;;;;;;;4.53;3.05;;;24.20;99.90;;;;;;5073695;28;20025;-49
2023/07/02 07:13:38;;;;;;;5.95;3.15;;;24.20;99.90;;;;;;5054861;28;20044;-48
2023/07/02 07:16:03;;;;;;;4.20;2.38;;;24.30;99.90;;;;;;5074038;28;20024;-49
2023/07/02 07:18:29;;;;;;;4.75;3.05;;;24.20;99.90;;;;;;5054803;28;20499;-48
2023/07/02 07:20:55;;;;;;;5.70;3.13;;;24.20;99.90;;;;;;5074209;28;20384;-49
2023/07/02 07:23:21;;;;;;;5.00;2.55;;;24.50;99.90;;;;;;5073591;28;20033;-48
2023/07/02 07:25:47;;;;;;;6.72;3.35;;;24.80;99.90;;;;;;5073678;28;20039;-48
2023/07/02 07:28:15;;;;;;;4.88;3.45;;;;;;;;;;5073643;28;20061;-48
2023/07/02 07:30:44;;;;;;;8.35;3.53;;;;;;;;;;5073834;28;20032;-48
2023/07/02 07:33:11;;;;;;;4.82;3.55;;;;;;;;;;5073516;28;20381;-48
2023/07/02 07:35:37;;;;;;;4.78;3.35;;;;;;;;;;5073515;28;20111;-49
2023/07/02 07:38:03;;;;;;;5.60;3.83;;;25.00;99.90;;;;;;5073833;28;20116;-48
2023/07/02 07:40:29;;;;;;;4.70;3.13;;;25.00;99.90;;;;;;5073147;28;20035;-48
2023/07/02 07:42:54;;;;;;;5.03;3.05;;;24.80;99.90;;;;;;5054535;28;20123;-48
2023/07/02 07:45:20;;;;;;;5.43;3.58;;;24.70;99.90;;;;;;5073176;28;20075;-50
2023/07/02 07:47:46;;;;;;;4.40;3.22;;;;;;;;;;5073227;28;20459;-48
2023/07/02 07:50:12;;;;;;;6.32;3.13;;;25.60;99.90;;;;;;5054839;28;20475;-49
2023/07/02 07:52:39;;;;;;;4.95;2.97;;;25.70;99.90;;;;;;5073255;28;20032;-47
2023/07/02 07:55:06;;;;;;;5.70;3.33;;;25.40;99.90;;;;;;5073108;28;20024;-49
2023/07/02 07:57:32;;;;;;;5.05;3.00;;;25.50;99.90;;;;;;5054156;28;20086;-48
2023/07/02 07:59:58;;;;;;;5.72;3.25;;;25.30;99.90;;;;;;5037532;28;20044;-48
2023/07/02 08:02:23;;;;;;;5.22;3.17;;;25.20;99.90;;;;;;5072971;28;20035;-48
2023/07/02 08:04:49;;;;;;;5.53;3.70;;;25.10;99.90;;;;;;5053032;28;20135;-48
2023/07/02 08:07:15;;;;;;;7.95;3.60;;;25.30;99.90;;;;;;5039090;28;20436;-48
2023/07/02 08:09:41;;;;;;;5.22;3.25;;;25.10;99.90;;;;;;5050529;28;20068;-49
2023/07/02 08:12:07;;;;;;;5.00;3.40;;;24.80;99.90;;;;;;5033765;28;20126;-50
2023/07/02 08:14:34;;;;;;;5.15;3.47;;;24.60;99.90;;;;;;5033884;28;20033;-48
2023/07/02 08:17:00;;;;;;;5.60;3.22;;;24.50;99.90;;;;;;5052765;28;20040;-49
2023/07/02 08:19:26;;;;;;;4.75;3.00;;;24.50;99.90;;;;;;5052720;28;20025;-49
2023/07/02 08:21:52;;;;;;;6.10;3.38;;;24.30;99.90;;;;;;5033936;28;20033;-50
2023/07/02 08:24:18;;;;;;;5.78;4.07;;;24.10;99.90;;;;;;5050463;28;20035;-48
2023/07/02 08:26:44;;;;;;;5.18;3.20;;;24.20;99.90;;;;;;5050371;28;20052;-48
2023/07/02 08:29:10;;;;;;;4.82;3.03;;;24.10;99.90;;;;;;5052588;28;20033;-48
2023/07/02 08:31:36;;;;;;;4.43;2.88;;;24.00;99.90;;;;;;5052010;28;20021;-49
2023/07/02 08:34:02;;;;;;;6.03;3.67;;;23.80;99.90;;;;;;5052552;28;20078;-48
2023/07/02 08:36:28;;;;;;;6.60;2.88;;;23.90;99.90;;;;;;5052164;28;20037;-50
2023/07/02 08:38:54;;;;;;;5.60;3.45;;;23.80;99.90;;;;;;5052293;28;20059;-50
2023/07/02 08:41:23;;;;;;;6.35;4.00;;;23.70;99.90;;;;;;5052392;28;20484;-49
2023/07/02 08:43:49;;;;;;;5.72;3.40;;;23.80;99.90;;;;;;5052288;28;20477;-50
2023/07/02 08:46:16;;;;;;;5.97;3.97;;;23.90;99.90;;;;;;5052742;28;20358;-48
2023/07/02 08:48:42;;;;;;;6.28;3.67;;;23.90;99.90;;;;;;5052077;28;20116;-50
2023/07/02 08:51:08;;;;;;;8.05;3.65;;;23.80;99.90;;;;;;5052480;28;20104;-49
2023/07/02 08:53:34;;;;;;;5.35;3.15;;;23.80;99.90;;;;;;5052354;28;20025;-50
2023/07/02 08:56:01;;;;;;;4.57;3.38;;;23.90;99.90;;;;;;5052411;28;20068;-49
2023/07/02 08:58:27;;;;;;;7.55;4.00;;;23.80;99.90;;;;;;5051833;28;20025;-49
2023/07/02 09:01:12;;;;;;;6.07;3.42;;;23.50;99.90;;;;;;5052006;28;20029;-50
2023/07/02 09:03:39;;;;;;;7.07;4.28;;;23.60;99.90;;;;;;5052227;28;20508;-50
2023/07/02 09:06:05;;;;;;;9.73;4.25;;;23.70;99.90;;;;;;5051990;28;20040;-48
2023/07/02 09:08:33;;;;;;;6.88;4.20;;;23.60;99.90;;;;;;5066213;28;20109;-50
2023/07/02 09:11:11;;;;;;;6.25;3.65;;;23.60;99.90;;;;;;5051883;28;20112;-48
2023/07/02 09:13:44;;;;;;;8.27;4.50;;;23.80;99.90;;;;;;5052018;28;20040;-50
2023/07/02 09:16:36;;;;;;;7.72;4.38;;;23.90;99.90;;;;;;5052539;28;20032;-50
2023/07/02 09:19:04;;;;;;;8.43;4.40;;;24.20;99.90;;;;;;5055865;28;20476;-49
2023/07/02 09:21:48;;;;;;;8.23;4.93;;;24.10;99.90;;;;;;5053665;28;20040;-49
2023/07/02 09:24:22;;;;;;;7.93;5.30;;;24.30;99.90;;;;;;5056117;28;20041;-50
2023/07/02 09:26:53;;;;;;;13.55;6.22;;;;;;;;;;5055788;28;20481;-49
2023/07/02 09:29:29;;;;;;;7.05;4.28;;;24.80;99.90;;;;;;5055686;28;20028;-49
2023/07/02 09:31:57;;;;;;;6.22;4.40;;;24.90;99.90;;;;;;5055633;28;20383;-50
2023/07/02 09:34:29;;;;;;;6.35;4.28;;;;;;;;;;5055949;28;20032;-49
2023/07/02 09:36:55;;;;;;;28.75;7.18;;;25.30;99.90;;;;;;5056067;28;20124;-50
2023/07/02 09:39:26;;;;;;;28.52;9.43;;;25.30;99.90;;;;;;5055451;28;20088;-50
2023/07/02 09:41:52;;;;;;;14.95;6.38;;;;;;;;;;5055485;28;20044;-49
2023/07/02 09:44:19;;;;;;;10.00;5.22;;;;;;;;;;5055611;28;20029;-48
2023/07/02 09:47:05;;;;;;;6.70;4.40;;;;;;;;;;5055353;28;20033;-49
2023/07/02 09:49:36;;;;;;;13.70;5.30;;;26.00;99.90;;;;;;4993622;28;20073;-50
2023/07/02 09:52:05;;;;;;;7.90;4.90;;;26.10;99.90;;;;;;4993789;28;20561;-50
2023/07/02 09:54:31;;;;;;;9.13;4.45;;;26.00;99.90;;;;;;4961638;28;20069;-49
2023/07/02 09:56:58;;;;;;;10.70;5.43;;;;;;;;;;4993563;28;20034;-49
2023/07/02 09:59:24;;;;;;;11.90;5.03;;;26.60;99.90;;;;;;4976902;28;20525;-49
2023/07/02 10:01:50;;;;;;;6.78;4.60;;;;;;;;;;4993412;28;20126;-50
2023/07/02 10:04:18;;;;;;;8.63;4.50;;;;;;;;;;4993412;28;20038;-49
2023/07/02 10:06:53;;;;;;;8.18;4.70;;;;;;;;;;4993084;28;20597;-49
2023/07/02 10:09:41;;;;;;;6.18;4.18;;;27.90;99.90;;;;;;4983141;28;20059;-49
2023/07/02 10:12:19;;;;;;;6.80;4.10;;;;;;;;;;4973941;28;20031;-51
2023/07/02 10:14:46;;;;;;;6.35;4.20;;;;;;;;;;4973393;28;20069;-49
2023/07/02 10:17:24;;;;;;;6.93;4.00;;;;;;;;;;4973716;28;20479;-49
2023/07/02 10:19:53;;;;;;;7.05;4.20;;;;;;;;;;4973563;28;20142;-50
2023/07/02 10:22:19;;;;;;;6.10;4.15;;;27.70;99.90;;;;;;4973719;28;20066;-49
2023/07/02 10:24:52;;;;;;;5.20;4.20;;;;;;;;;;4973493;28;20390;-50
2023/07/02 10:27:19;;;;;;;9.40;3.95;;;;;;;;;;5005835;28;20069;-50
2023/07/02 10:29:51;;;;;;;7.65;3.85;;;;;;;;;;5029253;28;20069;-49
2023/07/02 10:32:27;;;;;;;5.00;3.50;;;;;;;;;;5029165;28;20391;-49
2023/07/02 10:34:54;;;;;;;6.03;4.00;;;;;;;;;;5015055;28;20075;-50
2023/07/02 10:37:20;;;;;;;5.25;3.17;;;;;;;;;;5014893;28;20113;-50
2023/07/02 10:39:45;;;;;;;6.07;4.13;;;28.60;99.90;;;;;;5014532;28;20066;-50
2023/07/02 10:42:11;;;;;;;5.10;3.47;;;28.70;99.90;;;;;;4996370;28;20077;-50
2023/07/02 10:44:48;;;;;;;7.10;3.58;;;;;;;;;;5014620;28;20030;-49
2023/07/02 10:47:14;;;;;;;8.70;4.28;;;;;;;;;;5014662;28;20029;-49
2023/07/02 10:49:40;;;;;;;5.75;3.88;;;;;;;;;;5028924;28;20506;-50
2023/07/02 10:52:09;;;;;;;5.65;3.65;;;;;;;;;;5014912;28;20052;-50
2023/07/02 10:54:53;;;;;;;7.15;4.13;;;;;;;;;;4979363;28;20092;-50
2023/07/02 10:57:20;;;;;;;6.68;4.25;;;;;;;;;;5012145;28;20052;-49
2023/07/02 10:59:46;;;;;;;8.88;4.03;;;;;;;;;;5017716;28;20472;-50
2023/07/02 11:02:12;;;;;;;4.82;3.67;;;28.70;99.90;;;;;;5033756;28;20052;-50
2023/07/02 11:04:38;;;;;;;4.90;3.88;;;28.90;99.90;;;;;;5034047;28;20465;-50
2023/07/02 11:07:05;;;;;;;7.40;3.67;;;;;;;;;;5033565;28;20034;-49
2023/07/02 11:09:30;;;;;;;6.45;3.80;;;29.20;99.90;;;;;;5002573;28;20049;-52
2023/07/02 11:11:58;;;;;;;7.68;3.70;;;29.00;99.90;;;;;;5033122;28;20059;-48
2023/07/02 11:14:33;;;;;;;5.45;3.33;;;29.50;99.90;;;;;;5032604;28;20048;-50
2023/07/02 11:17:05;;;;;;;5.25;3.35;;;29.50;99.90;;;;;;5030614;28;20049;-49
2023/07/02 11:19:35;;;;;;;4.22;3.03;;;29.60;99.90;;;;;;5033550;28;20091;-49
2023/07/02 11:22:02;;;;;;;7.00;3.90;;;29.20;99.90;;;;;;5031250;28;20052;-50
2023/07/02 11:24:36;;;;;;;5.28;3.88;;;29.20;99.90;;;;;;5033755;28;20033;-49
2023/07/02 11:27:05;;;;;;;7.10;3.10;;;29.40;99.90;;;;;;5031027;28;20033;-49
2023/07/02 11:29:32;;;;;;;5.50;3.55;;;28.70;99.90;;;;;;5033477;28;20636;-49
2023/07/02 11:32:11;;;;;;;6.78;4.32;;;29.00;99.90;;;;;;5032853;28;20072;-50
2023/07/02 11:34:38;;;;;;;4.82;3.10;;;29.30;99.90;;;;;;5033452;28;20033;-49
2023/07/02 11:37:05;;;;;;;4.68;2.97;;;29.10;99.90;;;;;;5031171;28;20033;-49
2023/07/02 11:39:31;;;;;;;5.68;3.78;;;28.60;99.90;;;;;;5032144;28;20179;-49
2023/07/02 11:41:57;;;;;;;5.82;3.33;;;28.50;99.90;;;;;;5033612;28;20045;-50
2023/07/02 11:44:23;;;;;;;6.03;4.25;;;28.80;99.90;;;;;;5033293;28;20101;-49
2023/07/02 11:46:49;;;;;;;5.00;3.80;;;29.00;99.90;;;;;;5033443;28;20156;-48
2023/07/02 11:49:15;;;;;;;5.95;4.07;;;28.80;99.90;;;;;;5014522;28;20077;-49
2023/07/02 11:51:46;;;;;;;6.15;4.25;;;28.60;99.90;;;;;;5033078;28;20087;-50
2023/07/02 11:54:12;;;;;;;5.78;3.40;;;28.40;99.90;;;;;;5033007;28;20040;-50
2023/07/02 11:56:38;;;;;;;5.70;3.35;;;28.30;99.90;;;;;;5033166;28;20033;-50
2023/07/02 11:59:04;;;;;;;5.03;3.80;;;28.00;99.90;;;;;;5032759;28;20091;-49
2023/07/02 12:01:29;;;;;;;6.85;4.22;;;28.00;99.90;;;;;;5032950;28;20021;-49
2023/07/02 12:03:55;;;;;;;6.97;3.92;;;27.80;99.90;;;;;;5047298;28;20041;-50
2023/07/02 12:06:21;;;;;;;6.32;4.13;;;27.80;99.90;;;;;;5047348;28;20042;-49
2023/07/02 12:08:46;;;;;;;4.55;3.08;;;28.00;99.90;;;;;;5036259;28;20048;-48
2023/07/02 12:11:12;;;;;;;6.10;3.80;;;27.80;99.90;;;;;;5052353;28;20036;-50
2023/07/02 12:13:38;;;;;;;4.97;3.80;;;27.40;99.90;;;;;;5052865;28;20079;-48
2023/07/02 12:16:04;;;;;;;7.10;4.07;;;27.70;99.90;;;;;;5052425;28;20093;-50
2023/07/02 12:18:29;;;;;;;5.85;4.10;;;28.00;99.90;;;;;;5052592;28;20051;-49
2023/07/02 12:20:55;;;;;;;7.28;4.20;;;28.30;99.90;;;;;;5052541;28;20052;-49
2023/07/02 12:23:21;;;;;;;4.80;3.75;;;28.50;99.90;;;;;;5051529;28;20029;-49
2023/07/02 12:25:47;;;;;;;8.50;3.97;;;29.10;99.90;;;;;;5043748;28;20025;-50
2023/07/02 12:28:13;;;;;;;4.88;3.50;;;;;;;;;;5023982;28;20025;-49
2023/07/02 12:30:39;;;;;;;6.95;4.05;;;;;;;;;;5037571;28;20029;-49
2023/07/02 12:33:06;;;;;;;9.18;4.75;;;;;;;;;;5013891;28;20397;-50
2023/07/02 12:35:32;;;;;;;5.63;4.03;;;;;;;;;;5032600;28;20080;-50
2023/07/02 12:37:58;;;;;;;7.90;3.72;;;;;;;;;;5013929;28;20061;-49
2023/07/02 12:40:23;;;;;;;4.43;3.35;;;29.50;99.90;;;;;;5032254;28;20037;-49
2023/07/02 12:42:50;;;;;;;7.30;3.90;;;;;;;;;;5032300;28;20369;-48
2023/07/02 12:45:16;;;;;;;5.90;4.05;;;;;;;;;;5032140;28;20036;-50
2023/07/02 12:47:42;;;;;;;6.35;4.20;;;;;;;;;;5032115;28;20021;-49
2023/07/02 12:50:09;;;;;;;5.13;3.47;;;29.20;99.90;;;;;;5046369;28;20102;-49
2023/07/02 12:52:35;;;;;;;5.18;3.80;;;29.00;99.90;;;;;;5021845;28;20044;-50
2023/07/02 12:55:02;;;;;;;5.00;2.60;;;;;;;;;;5066631;28;20036;-50
2023/07/02 12:57:28;;;;;;;4.22;3.22;;;;;;;;;;5051938;28;20017;-50
2023/07/02 12:59:54;;;;;;;5.78;3.30;;;;;;;;;;5051834;28;20041;-50
2023/07/02 13:02:22;;;;;;;5.00;3.38;;;;;;;;;;5063276;28;20068;-51